createdAt,value
2019-05-14T00:00:44.024Z,29.57
2019-05-14T00:03:15.769Z,28.07
2019-05-14T00:05:47.108Z,30.35
2019-05-14T00:08:18.427Z,29.80
2019-05-14T00:10:51.810Z,31.20
2019-05-14T00:13:22.766Z,31.27
2019-05-14T00:15:54.168Z,36.55
2019-05-14T00:18:25.706Z,29.65
2019-05-14T00:20:57.399Z,30.10
2019-05-14T00:23:28.648Z,30.02
2019-05-14T00:26:01.672Z,27.58
2019-05-14T00:28:33.233Z,27.27
2019-05-14T00:31:05.094Z,30.45
2019-05-14T00:33:36.617Z,23.15
2019-05-14T00:36:08.144Z,35.65
2019-05-14T00:38:41.783Z,27.73
2019-05-14T00:41:12.781Z,31.80
2019-05-14T00:43:44.236Z,26.57
2019-05-14T00:46:15.572Z,27.42
2019-05-14T00:48:47.023Z,31.80
2019-05-14T00:51:18.464Z,30.30
2019-05-14T00:53:51.588Z,28.75
2019-05-14T00:56:23.016Z,29.77
2019-05-14T00:58:54.421Z,28.55
2019-05-14T01:01:25.823Z,37.80
2019-05-14T01:03:57.318Z,28.47
2019-05-14T01:06:31.280Z,29.32
2019-05-14T01:09:01.682Z,28.30
2019-05-14T01:11:33.819Z,57.43
2019-05-14T01:14:05.221Z,31.85
2019-05-14T01:16:36.708Z,34.78
2019-05-14T01:19:08.011Z,28.57
2019-05-14T01:21:41.609Z,30.95
2019-05-14T01:24:12.695Z,42.10
2019-05-14T01:26:44.200Z,38.48
2019-05-14T01:29:15.796Z,29.52
2019-05-14T01:31:47.129Z,32.93
2019-05-14T01:34:18.533Z,31.40
2019-05-14T01:36:50.024Z,28.15
2019-05-14T01:39:21.888Z,30.27
2019-05-14T01:41:53.404Z,27.27
2019-05-14T01:44:24.778Z,28.92
2019-05-14T01:46:57.288Z,35.90
2019-05-14T01:49:28.826Z,29.45
2019-05-14T01:52:01.787Z,27.45
2019-05-14T01:54:33.457Z,32.65
2019-05-14T01:57:04.812Z,29.12
2019-05-14T01:59:36.258Z,34.43
2019-05-14T02:02:07.615Z,35.00
2019-05-14T02:04:38.961Z,27.58
2019-05-14T02:07:11.547Z,35.43
2019-05-14T02:09:43.226Z,32.40
2019-05-14T02:12:15.679Z,31.02
2019-05-14T02:14:47.231Z,26.97
2019-05-14T02:17:18.671Z,26.25
2019-05-14T02:19:51.537Z,27.10
2019-05-14T02:22:23.152Z,30.02
2019-05-14T02:24:54.560Z,27.40
2019-05-14T02:27:25.831Z,25.65
2019-05-14T02:29:57.257Z,43.02
2019-05-14T02:32:29.817Z,22.98
2019-05-14T02:35:01.389Z,21.00
2019-05-14T02:37:32.757Z,22.60
2019-05-14T02:40:09.620Z,19.92
2019-05-14T02:42:40.419Z,21.33
2019-05-14T02:45:12.498Z,19.40
2019-05-14T02:47:43.875Z,16.23
2019-05-14T02:50:15.420Z,17.05
2019-05-14T02:52:49.719Z,16.40
2019-05-14T02:55:20.153Z,19.48
2019-05-14T02:57:51.595Z,16.23
2019-05-14T03:00:23.172Z,15.78
2019-05-14T03:02:54.531Z,16.12
2019-05-14T03:05:29.324Z,14.68
2019-05-14T03:07:59.951Z,15.95
2019-05-14T03:10:31.553Z,14.15
2019-05-14T03:13:03.002Z,14.90
2019-05-14T03:15:34.440Z,14.47
2019-05-14T03:18:05.775Z,15.05
2019-05-14T03:20:39.117Z,14.53
2019-05-14T03:23:18.161Z,14.15
2019-05-14T03:25:43.480Z,15.20
2019-05-14T03:28:14.863Z,14.33
2019-05-14T03:30:51.380Z,14.50
2019-05-14T03:33:21.882Z,14.40
2019-05-14T03:36:01.591Z,15.58
2019-05-14T03:38:29.347Z,15.60
2019-05-14T03:41:00.515Z,16.42
2019-05-14T03:43:31.993Z,15.60
2019-05-14T03:46:03.433Z,15.50
2019-05-14T03:48:34.877Z,16.50
2019-05-14T03:51:08.958Z,16.42
2019-05-14T03:53:55.081Z,16.15
2019-05-14T03:56:12.456Z,16.20
2019-05-14T03:58:43.853Z,14.95
2019-05-14T04:01:15.454Z,17.10
2019-05-14T04:03:50.051Z,16.32
2019-05-14T04:08:51.816Z,16.12
2019-05-14T04:11:25.469Z,16.20
2019-05-14T04:14:00.381Z,14.80
2019-05-14T04:16:34.643Z,16.00
2019-05-14T04:19:09.990Z,16.37
2019-05-14T04:21:41.846Z,15.93
2019-05-14T04:24:15.073Z,17.65
2019-05-14T04:27:02.074Z,16.77
2019-05-14T04:29:25.027Z,18.17
2019-05-14T04:32:00.210Z,18.02
2019-05-14T04:34:31.210Z,17.07
2019-05-14T04:37:03.488Z,17.80
2019-05-14T04:39:34.933Z,17.07
2019-05-14T04:42:09.265Z,17.45
2019-05-14T04:44:40.520Z,17.05
2019-05-14T04:47:26.313Z,16.95
2019-05-14T04:52:20.252Z,17.20
2019-05-14T04:54:50.345Z,18.00
2019-05-14T04:57:25.491Z,17.48
2019-05-14T04:59:55.118Z,16.42
2019-05-14T05:02:29.822Z,17.40
2019-05-14T05:04:59.654Z,17.27
2019-05-14T05:07:31.097Z,17.40
2019-05-14T05:10:02.488Z,17.65
2019-05-14T05:12:33.803Z,18.45
2019-05-14T05:15:09.433Z,18.55
2019-05-14T05:17:48.014Z,15.55
2019-05-14T05:20:14.604Z,15.75
2019-05-14T05:22:48.365Z,16.35
2019-05-14T05:25:19.052Z,14.60
2019-05-14T05:27:50.444Z,15.00
2019-05-14T05:30:21.999Z,14.65
2019-05-14T05:32:53.421Z,15.30
2019-05-14T05:35:25.208Z,15.55
2019-05-14T05:37:58.344Z,15.28
2019-05-14T05:40:29.895Z,15.40
2019-05-14T05:43:01.388Z,14.50
2019-05-14T05:45:32.832Z,13.58
2019-05-14T05:48:04.154Z,14.87
2019-05-14T05:50:35.529Z,14.18
2019-05-14T05:53:09.010Z,15.50
2019-05-14T05:55:39.824Z,16.67
2019-05-14T05:58:11.280Z,15.98
2019-05-14T06:00:42.655Z,14.23
2019-05-14T06:03:13.965Z,15.75
2019-05-14T06:05:45.372Z,14.75
2019-05-14T06:08:18.900Z,16.35
2019-05-14T06:10:49.892Z,14.93
2019-05-14T06:13:21.421Z,16.05
2019-05-14T06:15:52.786Z,15.55
2019-05-14T06:18:24.154Z,15.88
2019-05-14T06:20:55.605Z,14.90
2019-05-14T06:23:28.425Z,13.55
2019-05-14T06:26:00.300Z,16.15
2019-05-14T06:28:33.660Z,15.70
2019-05-14T06:31:05.339Z,14.70
2019-05-14T06:33:39.121Z,14.58
2019-05-14T06:36:14.182Z,14.43
2019-05-14T06:38:43.645Z,15.80
2019-05-14T06:41:15.036Z,15.58
2019-05-14T06:43:48.734Z,13.88
2019-05-14T06:48:50.898Z,13.53
2019-05-14T06:51:22.383Z,13.03
2019-05-14T06:53:53.791Z,12.82
2019-05-14T06:56:25.240Z,14.55
2019-05-14T06:58:58.510Z,14.87
2019-05-14T07:01:32.639Z,13.70
2019-05-14T07:04:04.399Z,12.82
2019-05-14T07:06:51.818Z,12.78
2019-05-14T07:09:38.433Z,14.80
2019-05-14T07:12:14.432Z,13.43
2019-05-14T07:14:48.212Z,13.95
2019-05-14T07:17:19.911Z,14.17
2019-05-14T07:19:51.425Z,14.93
2019-05-14T07:22:22.890Z,14.58
2019-05-14T07:24:54.277Z,12.78
2019-05-14T07:27:28.258Z,13.70
2019-05-14T07:29:59.762Z,14.38
2019-05-14T07:32:31.087Z,13.62
2019-05-14T07:35:02.453Z,14.90
2019-05-14T07:37:34.012Z,12.80
2019-05-14T07:40:08.571Z,12.13
2019-05-14T07:42:39.637Z,12.82
2019-05-14T07:45:11.256Z,13.20
2019-05-14T07:47:42.722Z,15.20
2019-05-14T07:50:14.767Z,12.45
2019-05-14T07:52:46.274Z,13.15
2019-05-14T07:55:18.610Z,14.85
2019-05-14T07:57:50.472Z,11.88
2019-05-14T08:00:22.943Z,13.28
2019-05-14T08:02:54.354Z,12.10
2019-05-14T08:05:25.837Z,12.40
2019-05-14T08:07:58.577Z,11.97
2019-05-14T08:10:30.319Z,9.88
2019-05-14T08:13:01.731Z,11.25
2019-05-14T08:15:34.283Z,10.93
2019-05-14T08:18:07.909Z,11.75
2019-05-14T08:20:38.850Z,10.93
2019-05-14T08:23:10.433Z,10.80
2019-05-14T08:25:41.946Z,10.68
2019-05-14T08:28:13.272Z,10.48
2019-05-14T08:30:44.633Z,9.60
2019-05-14T08:33:18.273Z,9.90
2019-05-14T08:35:49.043Z,9.88
2019-05-14T08:38:20.705Z,10.50
2019-05-14T08:40:52.293Z,9.98
2019-05-14T08:43:23.824Z,10.80
2019-05-14T08:45:55.150Z,10.93
2019-05-14T08:48:29.306Z,10.15
2019-05-14T08:53:30.009Z,12.58
2019-05-14T08:56:01.513Z,11.95
2019-05-14T08:58:32.968Z,11.68
2019-05-14T09:01:04.545Z,14.03
2019-05-14T09:03:36.066Z,12.25
2019-05-14T09:06:09.347Z,18.37
2019-05-14T09:08:41.812Z,18.52
2019-05-14T09:11:13.741Z,14.50
2019-05-14T09:13:45.165Z,14.78
2019-05-14T09:19:15.510Z,21.80
2019-05-14T09:21:49.368Z,17.70
2019-05-14T09:24:19.919Z,20.45
2019-05-14T09:26:51.374Z,13.40
2019-05-14T09:29:26.119Z,12.25
2019-05-14T09:31:58.975Z,18.35
2019-05-14T09:34:30.031Z,27.13
2019-05-14T09:37:01.459Z,21.30
2019-05-14T09:39:32.836Z,14.55
2019-05-14T09:42:04.176Z,18.45
2019-05-14T09:44:35.660Z,16.82
2019-05-14T09:47:08.612Z,20.70
2019-05-14T09:49:41.362Z,17.30
2019-05-14T09:52:12.823Z,15.08
2019-05-14T09:54:44.349Z,34.83
2019-05-14T09:57:15.816Z,52.70
2019-05-14T09:59:47.985Z,33.70
2019-05-14T10:02:19.647Z,18.43
2019-05-14T10:04:51.101Z,18.92
2019-05-14T10:07:22.507Z,16.00
2019-05-14T10:09:54.078Z,10.60
2019-05-14T10:12:25.464Z,15.45
2019-05-14T10:14:59.137Z,46.70
2019-05-14T10:17:29.782Z,18.00
2019-05-14T10:20:01.116Z,14.38
2019-05-14T10:22:33.409Z,11.03
2019-05-14T10:25:05.565Z,28.27
2019-05-14T10:27:36.950Z,21.33
2019-05-14T10:30:10.521Z,12.70
2019-05-14T10:32:42.083Z,19.50
2019-05-14T10:35:15.385Z,11.70
2019-05-14T10:37:46.795Z,11.48
2019-05-14T10:40:20.045Z,12.37
2019-05-14T10:42:51.478Z,17.05
2019-05-14T10:45:22.923Z,13.85
2019-05-14T10:47:54.374Z,14.38
2019-05-14T10:50:25.721Z,15.68
2019-05-14T10:52:59.487Z,15.15
2019-05-14T10:55:31.366Z,13.38
2019-05-14T10:58:02.905Z,15.78
2019-05-14T11:00:34.414Z,16.20
2019-05-14T11:03:05.730Z,11.55
2019-05-14T11:05:41.295Z,15.50
2019-05-14T11:10:42.807Z,10.90
2019-05-14T11:13:14.316Z,13.10
2019-05-14T11:15:48.620Z,13.10
2019-05-14T11:18:20.147Z,12.58
2019-05-14T11:20:51.857Z,12.60
2019-05-14T11:23:23.499Z,14.05
2019-05-14T11:25:54.955Z,14.43
2019-05-14T11:28:28.707Z,13.22
2019-05-14T11:30:59.693Z,33.38
2019-05-14T11:33:31.048Z,26.48
2019-05-14T11:36:02.497Z,25.77
2019-05-14T11:38:37.495Z,22.75
2019-05-14T11:43:39.837Z,15.10
2019-05-14T11:48:41.107Z,15.83
2019-05-14T11:51:12.477Z,137.75
2019-05-14T11:53:43.881Z,49.53
2019-05-14T11:56:15.230Z,46.58
2019-05-14T11:58:46.604Z,38.60
2019-05-14T12:01:18.921Z,13.85
2019-05-14T12:03:50.942Z,22.62
2019-05-14T12:06:22.365Z,23.35
2019-05-14T12:08:53.817Z,16.12
2019-05-14T12:11:25.148Z,21.25
2019-05-14T12:13:59.649Z,21.45
2019-05-14T12:16:29.478Z,28.10
2019-05-14T12:19:00.727Z,24.87
2019-05-14T12:21:32.208Z,26.05
2019-05-14T12:24:06.012Z,31.80
2019-05-14T12:26:38.529Z,19.35
2019-05-14T12:29:10.271Z,27.98
2019-05-14T12:31:41.807Z,25.45
2019-05-14T12:34:13.235Z,20.20
2019-05-14T12:36:44.604Z,22.48
2019-05-14T12:39:18.609Z,19.60
2019-05-14T12:44:21.888Z,21.25
2019-05-14T12:46:53.437Z,20.37
2019-05-14T12:49:25.024Z,18.02
2019-05-14T12:51:59.140Z,15.43
2019-05-14T12:54:29.969Z,21.60
2019-05-14T12:57:01.577Z,22.27
2019-05-14T12:59:33.231Z,22.58
2019-05-14T13:02:04.879Z,18.25
2019-05-14T13:04:36.393Z,32.00
2019-05-14T13:07:09.119Z,25.75
2019-05-14T13:09:40.830Z,28.32
2019-05-14T13:12:12.420Z,28.87
2019-05-14T13:14:43.854Z,31.50
2019-05-14T13:17:15.349Z,20.45
2019-05-14T13:19:48.715Z,20.43
2019-05-14T13:24:52.056Z,32.75
2019-05-14T13:27:23.345Z,27.25
2019-05-14T13:29:54.798Z,33.83
2019-05-14T13:32:28.735Z,30.65
2019-05-14T13:37:31.545Z,31.97
2019-05-14T13:40:03.636Z,32.67
2019-05-14T13:42:35.226Z,44.40
2019-05-14T13:45:10.249Z,39.50
2019-05-14T13:47:42.088Z,47.53
2019-05-14T13:50:14.170Z,35.92
2019-05-14T13:53:02.073Z,44.03
2019-05-14T13:55:20.175Z,36.68
2019-05-14T13:57:51.631Z,56.50
2019-05-14T14:00:23.797Z,32.88
2019-05-14T14:02:55.281Z,22.97
2019-05-14T14:05:26.622Z,41.25
2019-05-14T14:07:59.013Z,62.48
2019-05-14T14:10:36.201Z,67.90
2019-05-14T14:13:06.688Z,39.30
2019-05-14T14:18:09.190Z,23.65
2019-05-14T14:20:40.625Z,47.48
2019-05-14T14:23:21.797Z,21.55
2019-05-14T14:28:15.613Z,23.42
2019-05-14T14:30:49.174Z,38.85
2019-05-14T14:35:50.670Z,57.90
2019-05-14T14:38:21.994Z,55.08
2019-05-14T14:40:53.358Z,50.33
2019-05-14T14:43:24.768Z,44.85
2019-05-14T14:45:59.374Z,48.90
2019-05-14T14:48:30.709Z,49.42
2019-05-14T14:51:02.391Z,51.48
2019-05-14T14:53:51.988Z,48.78
2019-05-14T14:56:09.370Z,55.40
2019-05-14T15:01:10.816Z,42.25
2019-05-14T15:03:42.218Z,49.00
2019-05-14T15:06:13.844Z,36.95
2019-05-14T15:08:45.359Z,46.73
2019-05-14T15:11:16.808Z,44.33
2019-05-14T15:13:48.494Z,43.42
2019-05-14T15:16:20.464Z,42.85
2019-05-14T15:18:51.979Z,40.15
2019-05-14T15:21:23.434Z,54.75
2019-05-14T15:24:07.148Z,37.85
2019-05-14T15:26:28.885Z,46.77
2019-05-14T15:29:00.371Z,49.15
2019-05-14T15:31:32.148Z,50.58
2019-05-14T15:34:03.758Z,48.38
2019-05-14T15:36:35.107Z,47.10
2019-05-14T15:39:09.718Z,46.33
2019-05-14T15:41:41.195Z,44.38
2019-05-14T15:44:12.536Z,56.48
2019-05-14T15:46:43.884Z,75.25
2019-05-14T15:49:15.350Z,95.15
2019-05-14T15:51:46.784Z,91.17
2019-05-14T15:54:36.125Z,88.58
2019-05-14T15:56:51.113Z,85.07
2019-05-14T15:59:22.470Z,82.00
2019-05-14T16:01:53.986Z,55.05
2019-05-14T16:04:25.375Z,79.90
2019-05-14T16:06:58.635Z,59.98
2019-05-14T16:09:30.539Z,55.58
2019-05-14T16:12:01.970Z,40.12
2019-05-14T16:14:33.432Z,63.80
2019-05-14T16:17:04.984Z,51.60
2019-05-14T16:19:36.325Z,504.27
2019-05-14T16:22:09.773Z,607.12
2019-05-14T16:27:13.059Z,272.48
2019-05-14T16:29:46.004Z,594.73
2019-05-14T16:32:17.689Z,597.02
2019-05-14T16:34:49.272Z,568.77
2019-05-14T16:37:21.314Z,510.78
2019-05-14T16:39:52.770Z,340.85
2019-05-14T16:42:25.232Z,277.98
2019-05-14T16:44:56.659Z,172.78
2019-05-14T16:47:28.758Z,143.20
2019-05-14T16:50:00.407Z,142.50
2019-05-14T16:52:31.742Z,98.97
2019-05-14T16:55:18.309Z,101.53
2019-05-14T16:57:38.667Z,96.32
2019-05-14T17:00:10.582Z,81.12
2019-05-14T17:02:41.883Z,79.55
2019-05-14T17:05:13.392Z,80.60
2019-05-14T17:07:44.770Z,70.72
2019-05-14T17:10:18.194Z,58.63
2019-05-14T17:15:21.392Z,87.15
2019-05-14T17:17:52.919Z,64.65
2019-05-14T17:20:24.386Z,61.77
2019-05-14T17:22:55.906Z,61.77
2019-05-14T17:25:30.342Z,60.15
2019-05-14T17:28:00.228Z,68.35
2019-05-14T17:30:31.783Z,63.87
2019-05-14T17:33:03.380Z,65.52
2019-05-14T17:35:34.819Z,67.85
2019-05-14T17:38:06.133Z,67.75
2019-05-14T17:40:39.683Z,57.80
2019-05-14T17:43:10.589Z,49.48
2019-05-14T17:45:42.089Z,46.40
2019-05-14T17:48:28.939Z,35.95
2019-05-14T17:51:00.496Z,38.42
2019-05-14T17:53:31.988Z,32.88
2019-05-14T17:56:03.301Z,36.63
2019-05-14T17:58:34.675Z,35.10
2019-05-14T18:01:08.807Z,36.00
2019-05-14T18:03:39.982Z,36.08
2019-05-14T18:06:12.001Z,37.42
2019-05-14T18:08:43.458Z,36.98
2019-05-14T18:11:14.854Z,38.55
2019-05-14T18:13:48.472Z,40.50
2019-05-14T18:16:20.367Z,34.83
2019-05-14T18:18:51.818Z,38.30
2019-05-14T18:21:23.318Z,35.63
2019-05-14T18:23:58.428Z,34.75
2019-05-14T18:26:30.821Z,37.13
2019-05-14T18:29:04.511Z,43.30
2019-05-14T18:31:35.434Z,42.75
2019-05-14T18:34:06.984Z,43.68
2019-05-14T18:36:39.516Z,42.03
2019-05-14T18:39:28.342Z,37.67
2019-05-14T18:42:00.812Z,45.48
2019-05-14T18:44:32.514Z,54.13
2019-05-14T18:47:03.999Z,46.98
2019-05-14T18:49:35.377Z,39.98
2019-05-14T18:52:08.936Z,39.90
2019-05-14T18:57:18.032Z,44.45
2019-05-14T18:59:49.792Z,45.98
2019-05-14T19:02:21.225Z,44.60
2019-05-14T19:05:08.566Z,45.75
2019-05-14T19:07:51.420Z,40.90
2019-05-14T19:10:22.895Z,40.30
2019-05-14T19:12:54.551Z,37.17
2019-05-14T19:15:26.014Z,39.10
2019-05-14T19:18:00.996Z,37.28
2019-05-14T19:23:01.166Z,42.60
2019-05-14T19:25:32.688Z,40.95
2019-05-14T19:28:04.147Z,42.98
2019-05-14T19:30:37.974Z,34.38
2019-05-14T19:33:08.708Z,37.95
2019-05-14T19:35:40.171Z,40.48
2019-05-14T19:38:14.367Z,34.83
2019-05-14T19:40:48.248Z,40.38
2019-05-14T19:43:19.179Z,39.70
2019-05-14T19:45:50.701Z,40.00
2019-05-14T19:48:22.302Z,40.58
2019-05-14T19:50:53.723Z,35.20
2019-05-14T19:53:25.044Z,37.45
2019-05-14T19:55:59.195Z,39.85
2019-05-14T19:58:29.708Z,43.70
2019-05-14T20:01:02.292Z,38.80
2019-05-14T20:03:33.859Z,46.28
2019-05-14T20:06:08.816Z,37.97
2019-05-14T20:08:39.557Z,36.63
2019-05-14T20:11:11.000Z,39.08
2019-05-14T20:13:42.395Z,36.95
2019-05-14T20:16:13.851Z,38.50
2019-05-14T20:18:45.192Z,39.23
2019-05-14T20:21:16.627Z,38.85
2019-05-14T20:23:48.271Z,39.08
2019-05-14T20:26:19.887Z,36.58
2019-05-14T20:28:51.308Z,34.70
2019-05-14T20:31:22.735Z,35.40
2019-05-14T20:33:54.215Z,35.40
2019-05-14T20:36:28.077Z,35.40
2019-05-14T20:38:59.016Z,34.92
2019-05-14T20:41:30.394Z,34.58
2019-05-14T20:44:01.846Z,37.40
2019-05-14T20:46:33.162Z,36.98
2019-05-14T20:49:05.036Z,34.78
2019-05-14T20:51:38.677Z,36.58
2019-05-14T20:54:09.404Z,37.67
2019-05-14T20:56:40.844Z,37.80
2019-05-14T20:59:12.293Z,41.60
2019-05-14T21:01:43.607Z,39.50
2019-05-14T21:04:14.992Z,38.55
2019-05-14T21:06:48.462Z,33.88
2019-05-14T21:09:19.482Z,37.98
2019-05-14T21:11:50.759Z,34.70
2019-05-14T21:14:25.090Z,35.50
2019-05-14T21:16:55.190Z,43.02
2019-05-14T21:19:28.316Z,46.20
2019-05-14T21:22:01.217Z,45.55
2019-05-14T21:24:32.695Z,43.33
2019-05-14T21:27:04.102Z,46.15
2019-05-14T21:29:35.446Z,44.88
2019-05-14T21:32:08.542Z,46.73
2019-05-14T21:34:39.964Z,40.73
2019-05-14T21:37:11.569Z,41.55
2019-05-14T21:39:43.132Z,37.55
2019-05-14T21:42:14.554Z,32.65
2019-05-14T21:44:45.994Z,36.95
2019-05-14T21:47:17.449Z,36.77
2019-05-14T21:49:50.375Z,41.68
2019-05-14T21:52:22.702Z,47.17
2019-05-14T21:54:54.146Z,55.75
2019-05-14T21:57:28.262Z,60.63
2019-05-14T21:59:59.002Z,57.05
2019-05-14T22:02:30.671Z,60.30
2019-05-14T22:05:03.391Z,66.40
2019-05-14T22:07:34.814Z,53.42
2019-05-14T22:10:07.810Z,54.08
2019-05-14T22:12:39.600Z,47.10
2019-05-14T22:15:11.483Z,57.53
2019-05-14T22:17:42.787Z,56.75
2019-05-14T22:20:14.809Z,54.10
2019-05-14T22:22:48.207Z,54.10
2019-05-14T22:25:19.188Z,45.92
2019-05-14T22:27:50.395Z,55.25
2019-05-14T22:30:21.842Z,50.50
2019-05-14T22:32:53.218Z,50.65
2019-05-14T22:35:24.635Z,50.52
2019-05-14T22:37:56.096Z,54.58
2019-05-14T22:40:29.218Z,46.37
2019-05-14T22:45:31.796Z,45.17
2019-05-14T22:48:03.289Z,60.85
2019-05-14T22:50:34.676Z,62.48
2019-05-14T22:53:05.896Z,47.78
2019-05-14T22:55:38.230Z,49.53
2019-05-14T22:58:23.614Z,55.03
2019-05-14T23:00:46.995Z,48.73
2019-05-14T23:03:15.733Z,52.27
2019-05-14T23:05:48.514Z,45.80
2019-05-14T23:08:19.896Z,49.63
2019-05-14T23:10:51.214Z,48.38
2019-05-14T23:13:22.523Z,44.33
2019-05-14T23:15:53.819Z,42.53
2019-05-14T23:18:25.014Z,48.87
2019-05-14T23:20:58.692Z,49.67
2019-05-14T23:23:29.346Z,47.30
2019-05-14T23:26:00.722Z,53.68
2019-05-14T23:28:41.873Z,48.83
2019-05-14T23:31:05.079Z,43.13
2019-05-14T23:33:38.633Z,52.62
2019-05-14T23:36:09.560Z,46.98
2019-05-14T23:38:41.068Z,56.18
2019-05-14T23:41:12.545Z,48.35
2019-05-14T23:43:43.842Z,49.88
2019-05-14T23:46:15.116Z,52.35
2019-05-14T23:48:48.470Z,46.95
2019-05-14T23:51:19.555Z,47.78
2019-05-14T23:53:50.718Z,49.95
2019-05-14T23:56:22.018Z,47.53
2019-05-14T23:58:57.906Z,44.15
